createdAt,value
2023-04-28T00:01:50.552Z,99937.25
2023-04-28T00:04:19.767Z,99931.16
2023-04-28T00:06:48.760Z,99925.88
2023-04-28T00:09:17.268Z,99925.03
2023-04-28T00:11:47.444Z,99917.16
2023-04-28T00:14:16.194Z,99911.09
2023-04-28T00:16:44.996Z,99901.47
2023-04-28T00:19:13.532Z,99901.53
2023-04-28T00:21:42.004Z,99901.53
2023-04-28T00:24:10.605Z,99898.97
2023-04-28T00:26:39.192Z,99895.47
2023-04-28T00:29:09.091Z,99897.25
2023-04-28T00:31:37.642Z,99892.91
2023-04-28T00:34:06.227Z,99890.28
2023-04-28T00:36:35.950Z,99886.81
2023-04-28T00:39:04.500Z,99878.97
2023-04-28T00:41:33.068Z,99875.50
2023-04-28T00:44:01.732Z,99877.25
2023-04-28T00:46:33.242Z,99873.81
2023-04-28T00:49:01.872Z,99865.06
2023-04-28T00:51:30.746Z,99872.97
2023-04-28T00:53:59.375Z,99873.81
2023-04-28T00:56:31.145Z,99867.72
2023-04-28T00:58:59.917Z,99868.59
2023-04-28T01:01:28.805Z,99861.59
2023-04-28T01:03:59.154Z,99859.78
2023-04-28T01:06:29.802Z,99872.91
2023-04-28T01:09:00.427Z,99878.13
2023-04-28T01:11:28.988Z,99869.41
2023-04-28T01:14:09.083Z,99861.53
2023-04-28T01:16:40.478Z,99867.66
2023-04-28T01:19:16.302Z,99866.78
2023-04-28T01:21:44.982Z,99866.78
2023-04-28T01:24:24.045Z,99861.53
2023-04-28T01:26:52.567Z,99862.41
2023-04-28T01:29:21.051Z,99859.78
2023-04-28T01:31:49.617Z,99867.59
2023-04-28T01:34:19.070Z,99864.06
2023-04-28T01:36:52.604Z,99862.31
2023-04-28T01:39:21.149Z,99857.03
2023-04-28T01:41:51.084Z,99857.00
2023-04-28T01:44:19.843Z,99852.59
2023-04-28T01:46:50.413Z,99858.72
2023-04-28T01:49:19.089Z,99854.34
2023-04-28T01:51:56.749Z,99854.25
2023-04-28T01:54:43.483Z,99845.53
2023-04-28T01:57:33.485Z,99851.59
2023-04-28T02:00:02.116Z,99846.34
2023-04-28T02:02:31.631Z,99849.84
2023-04-28T02:05:00.198Z,99837.56
2023-04-28T02:07:28.863Z,99833.19
2023-04-28T02:09:57.377Z,99836.66
2023-04-28T02:12:25.910Z,99829.63
2023-04-28T02:14:56.192Z,99826.97
2023-04-28T02:17:24.706Z,99825.19
2023-04-28T02:19:56.817Z,99829.56
2023-04-28T02:22:25.789Z,99813.84
2023-04-28T02:24:54.346Z,99812.91
2023-04-28T02:27:22.934Z,99807.69
2023-04-28T02:29:51.758Z,99810.25
2023-04-28T02:32:21.841Z,99807.59
2023-04-28T02:34:54.833Z,99818.94
2023-04-28T02:37:24.995Z,99818.91
2023-04-28T02:39:53.697Z,99838.09
2023-04-28T02:42:24.061Z,99821.50
2023-04-28T02:44:52.626Z,99819.72
2023-04-28T02:47:22.516Z,99824.97
2023-04-28T02:49:51.276Z,99833.69
2023-04-28T02:52:20.065Z,99821.44
2023-04-28T02:54:49.261Z,99831.88
2023-04-28T02:57:19.180Z,99828.38
2023-04-28T02:59:47.788Z,99821.38
2023-04-28T03:02:16.578Z,99830.97
2023-04-28T03:04:46.722Z,99818.75
2023-04-28T03:07:15.460Z,99816.94
2023-04-28T03:09:46.323Z,99824.81
2023-04-28T03:12:14.908Z,99809.91
2023-04-28T03:14:43.396Z,99809.03
2023-04-28T03:17:14.439Z,99812.47
2023-04-28T03:19:43.229Z,99809.03
2023-04-28T03:22:13.399Z,99796.78
2023-04-28T03:24:41.958Z,99789.72
2023-04-28T03:27:10.815Z,99794.09
2023-04-28T03:29:39.300Z,99785.31
2023-04-28T03:32:08.256Z,99794.03
2023-04-28T03:34:36.889Z,99794.88
2023-04-28T03:37:05.842Z,99781.78
2023-04-28T03:39:36.331Z,99780.03
2023-04-28T03:42:05.353Z,99773.88
2023-04-28T03:45:05.873Z,99764.25
2023-04-28T03:47:34.603Z,99762.47
2023-04-28T03:50:03.561Z,99754.63
2023-04-28T03:52:32.454Z,99749.38
2023-04-28T03:55:02.389Z,99746.75
2023-04-28T03:57:31.629Z,99754.56
2023-04-28T04:00:00.154Z,99738.84
2023-04-28T04:02:31.969Z,99734.50
2023-04-28T04:05:01.687Z,99731.00
2023-04-28T04:07:30.739Z,99725.75
2023-04-28T04:09:59.190Z,99725.75
2023-04-28T04:12:29.033Z,99731.00
2023-04-28T04:14:57.588Z,99724.00
2023-04-28T04:17:26.605Z,99717.84
2023-04-28T04:19:55.498Z,99702.16
2023-04-28T04:22:24.183Z,99689.88
2023-04-28T04:24:52.694Z,99688.13
2023-04-28T04:27:21.209Z,99703.84
2023-04-28T04:29:51.037Z,99719.56
2023-04-28T04:32:19.883Z,99719.56
2023-04-28T04:34:48.466Z,99723.91
2023-04-28T04:37:17.635Z,99728.28
2023-04-28T04:40:03.631Z,99719.56
2023-04-28T04:42:38.336Z,99723.06
2023-04-28T04:45:11.449Z,99721.31
2023-04-28T04:47:41.509Z,99712.63
2023-04-28T04:50:12.223Z,99707.38
2023-04-28T04:52:41.811Z,99705.66
2023-04-28T04:55:11.494Z,99703.03
2023-04-28T04:57:42.776Z,99703.91
2023-04-28T05:00:21.539Z,99701.28
2023-04-28T05:02:50.871Z,99698.69
2023-04-28T05:05:21.671Z,99704.84
2023-04-28T05:08:08.246Z,99700.50
2023-04-28T05:10:37.347Z,99707.47
2023-04-28T05:13:06.354Z,99704.03
2023-04-28T05:15:36.846Z,99703.16
2023-04-28T05:18:31.627Z,99698.84
2023-04-28T05:21:01.686Z,99698.84
2023-04-28T05:23:30.474Z,99690.13
2023-04-28T05:25:59.862Z,99676.19
2023-04-28T05:28:28.435Z,99684.94
2023-04-28T05:30:59.451Z,99681.47
2023-04-28T05:33:27.978Z,99674.50
2023-04-28T05:35:56.712Z,99681.53
2023-04-28T05:38:26.104Z,99681.56
2023-04-28T05:40:55.866Z,99679.88
2023-04-28T05:43:24.588Z,99691.25
2023-04-28T05:45:53.913Z,99682.53
2023-04-28T05:48:24.867Z,99682.56
2023-04-28T05:50:53.654Z,99681.69
2023-04-28T05:53:23.738Z,99679.13
2023-04-28T05:55:53.440Z,99678.25
2023-04-28T05:58:22.686Z,99678.31
2023-04-28T06:00:51.516Z,99676.59
2023-04-28T06:03:20.412Z,99674.88
2023-04-28T06:05:52.244Z,99672.31
2023-04-28T06:08:21.249Z,99671.50
2023-04-28T06:10:49.977Z,99668.94
2023-04-28T06:13:18.475Z,99673.34
2023-04-28T06:15:47.210Z,99665.56
2023-04-28T06:18:16.815Z,99663.88
2023-04-28T06:20:45.405Z,99659.56
2023-04-28T06:23:15.521Z,99652.66
2023-04-28T06:25:48.876Z,99645.75
2023-04-28T06:28:17.517Z,99649.28
2023-04-28T06:30:47.152Z,99644.97
2023-04-28T06:33:15.904Z,99645.09
2023-04-28T06:35:44.932Z,99639.88
2023-04-28T06:38:15.479Z,99660.13
2023-04-28T06:40:45.705Z,99657.56
2023-04-28T06:43:14.496Z,99657.59
2023-04-28T06:45:51.431Z,99663.78
2023-04-28T06:48:20.304Z,99661.28
2023-04-28T06:50:49.084Z,99653.50
2023-04-28T06:53:19.057Z,99656.19
2023-04-28T06:55:47.662Z,99649.25
2023-04-28T06:58:16.939Z,99655.41
2023-04-28T07:00:45.905Z,99664.22
2023-04-28T07:03:14.636Z,99646.75
2023-04-28T07:05:43.304Z,99646.78
2023-04-28T07:08:12.437Z,99650.31
2023-04-28T07:10:43.195Z,99638.09
2023-04-28T07:13:12.485Z,99646.88
2023-04-28T07:15:41.327Z,99655.72
2023-04-28T07:18:10.453Z,99655.75
2023-04-28T07:20:39.171Z,99654.03
2023-04-28T07:23:08.323Z,99645.31
2023-04-28T07:25:37.072Z,99649.75
2023-04-28T07:28:07.438Z,99655.94
2023-04-28T07:30:36.272Z,99655.94
2023-04-28T07:33:05.070Z,99657.75
2023-04-28T07:35:33.687Z,99656.91
2023-04-28T07:38:03.903Z,99639.41
2023-04-28T07:40:32.309Z,99641.22
2023-04-28T07:43:00.918Z,99650.91
2023-04-28T07:45:31.102Z,99657.91
2023-04-28T07:48:00.047Z,99668.41
2023-04-28T07:50:28.953Z,99659.66
2023-04-28T07:52:58.237Z,99658.78
2023-04-28T07:55:26.904Z,99664.88
2023-04-28T07:57:57.176Z,99674.56
2023-04-28T08:00:25.698Z,99675.44
2023-04-28T08:02:57.009Z,99673.69
2023-04-28T08:05:25.932Z,99674.56
2023-04-28T08:07:54.705Z,99665.84
2023-04-28T08:10:23.256Z,99668.50
2023-04-28T08:12:51.905Z,99665.88
2023-04-28T08:15:20.672Z,99658.03
2023-04-28T08:17:49.232Z,99649.31
2023-04-28T08:20:22.250Z,99653.72
2023-04-28T08:22:52.597Z,99648.50
2023-04-28T08:25:21.661Z,99643.28
2023-04-28T08:27:49.996Z,99654.66
2023-04-28T08:30:18.465Z,99658.16
2023-04-28T08:32:47.763Z,99658.19
2023-04-28T08:35:16.446Z,99652.13
2023-04-28T08:37:46.573Z,99653.84
2023-04-28T08:40:15.148Z,99662.66
2023-04-28T08:42:45.907Z,99662.72
2023-04-28T08:45:15.301Z,99665.38
2023-04-28T08:47:46.207Z,99666.28
2023-04-28T08:50:15.542Z,99658.41
2023-04-28T08:52:44.133Z,99652.34
2023-04-28T08:55:14.369Z,99648.00
2023-04-28T08:57:45.315Z,99660.34
2023-04-28T09:00:14.596Z,99656.88
2023-04-28T09:02:43.642Z,99656.03
2023-04-28T09:05:15.146Z,99661.34
2023-04-28T09:07:47.971Z,99662.22
2023-04-28T09:10:19.991Z,99661.38
2023-04-28T09:12:49.974Z,99665.75
2023-04-28T09:15:30.605Z,99655.25
2023-04-28T09:18:00.577Z,99658.78
2023-04-28T09:20:31.499Z,99649.13
2023-04-28T09:23:14.986Z,99658.72
2023-04-28T09:25:59.730Z,99655.22
2023-04-28T09:28:29.441Z,99656.13
2023-04-28T09:30:58.106Z,99654.34
2023-04-28T09:33:27.020Z,99654.34
2023-04-28T09:35:55.680Z,99657.88
2023-04-28T09:38:24.763Z,99651.75
2023-04-28T09:40:55.519Z,99649.97
2023-04-28T09:43:33.519Z,99654.34
2023-04-28T09:46:03.860Z,99654.34
2023-04-28T09:48:34.269Z,99652.59
2023-04-28T09:51:04.325Z,99653.47
2023-04-28T09:53:33.403Z,99652.59
2023-04-28T09:56:03.652Z,99647.34
2023-04-28T09:58:36.056Z,99656.13
2023-04-28T10:01:06.892Z,99647.34
2023-04-28T10:03:36.845Z,99647.34
2023-04-28T10:06:06.947Z,99643.81
2023-04-28T10:08:36.003Z,99646.44
2023-04-28T10:11:05.083Z,99650.84
2023-04-28T10:13:37.050Z,99650.84
2023-04-28T10:16:06.541Z,99649.97
2023-04-28T10:18:36.523Z,99659.66
2023-04-28T10:21:07.492Z,99659.66
2023-04-28T10:24:01.168Z,99649.97
2023-04-28T10:26:59.140Z,99643.84
2023-04-28T10:29:33.408Z,99642.09
2023-04-28T10:32:22.259Z,99646.50
2023-04-28T10:34:51.617Z,99645.59
2023-04-28T10:37:20.455Z,99644.75
2023-04-28T10:40:26.368Z,99652.66
2023-04-28T10:42:56.699Z,99643.00
2023-04-28T10:46:03.052Z,99643.91
2023-04-28T10:49:08.261Z,99651.81
2023-04-28T10:51:38.389Z,99645.69
2023-04-28T10:54:11.153Z,99647.44
2023-04-28T10:56:41.848Z,99648.31
2023-04-28T10:59:31.341Z,99650.97
2023-04-28T11:02:30.019Z,99648.34
2023-04-28T11:05:20.827Z,99645.72
2023-04-28T11:08:36.389Z,99639.59
2023-04-28T11:11:22.645Z,99648.34
2023-04-28T11:13:51.607Z,99641.34
2023-04-28T11:16:23.173Z,99643.13
2023-04-28T11:18:55.839Z,99640.47
2023-04-28T11:21:25.984Z,99642.25
2023-04-28T11:23:56.395Z,99639.63
2023-04-28T11:26:24.969Z,99636.97
2023-04-28T11:28:55.220Z,99631.69
2023-04-28T11:31:24.589Z,99633.47
2023-04-28T11:33:56.813Z,99634.34
2023-04-28T11:36:30.353Z,99641.41
2023-04-28T11:39:00.966Z,99647.56
2023-04-28T11:41:29.798Z,99641.41
2023-04-28T11:43:58.881Z,99644.06
2023-04-28T11:46:28.568Z,99639.66
2023-04-28T11:49:05.654Z,99634.41
2023-04-28T11:51:38.860Z,99634.41
2023-04-28T11:54:11.843Z,99639.66
2023-04-28T11:56:43.309Z,99638.81
2023-04-28T11:59:15.807Z,99634.44
2023-04-28T12:01:49.255Z,99633.59
2023-04-28T12:04:29.510Z,99634.47
2023-04-28T12:07:06.446Z,99638.88
2023-04-28T12:09:36.897Z,99629.22
2023-04-28T12:12:07.361Z,99630.13
2023-04-28T12:14:57.579Z,99642.44
2023-04-28T12:17:27.555Z,99631.00
2023-04-28T12:19:56.601Z,99632.78
2023-04-28T12:22:26.348Z,99631.91
2023-04-28T12:25:08.273Z,99636.31
2023-04-28T12:27:39.300Z,99632.81
2023-04-28T12:30:26.201Z,99635.44
2023-04-28T12:32:56.366Z,99636.31
2023-04-28T12:35:26.371Z,99624.88
2023-04-28T12:37:56.586Z,99629.28
2023-04-28T12:40:28.486Z,99629.28
2023-04-28T12:42:57.652Z,99623.06
2023-04-28T12:45:26.549Z,99623.06
2023-04-28T12:47:55.465Z,99619.47
2023-04-28T12:50:25.867Z,99611.50
2023-04-28T12:52:54.736Z,99620.22
2023-04-28T12:55:24.193Z,99609.63
2023-04-28T12:57:54.943Z,99615.78
2023-04-28T13:00:25.190Z,99609.56
2023-04-28T13:02:54.066Z,99615.69
2023-04-28T13:05:22.977Z,99616.56
2023-04-28T13:07:52.496Z,99606.00
2023-04-28T13:10:22.362Z,99611.25
2023-04-28T13:12:50.751Z,99598.84
2023-04-28T13:15:20.908Z,99591.69
2023-04-28T13:17:49.868Z,99587.16
2023-04-28T13:20:18.563Z,99591.44
2023-04-28T13:22:47.342Z,99581.53
2023-04-28T13:25:16.248Z,99591.97
2023-04-28T13:27:44.709Z,99574.19
2023-04-28T13:30:14.484Z,99574.88
2023-04-28T13:32:44.564Z,99574.69
2023-04-28T13:35:13.229Z,99577.13
2023-04-28T13:37:45.812Z,99565.31
2023-04-28T13:40:14.584Z,99563.22
2023-04-28T13:42:43.170Z,99557.72
2023-04-28T13:45:16.219Z,99555.72
2023-04-28T13:47:50.263Z,99551.03
2023-04-28T13:50:18.876Z,99558.69
2023-04-28T13:52:48.783Z,99547.88
2023-04-28T13:55:17.260Z,99542.31
2023-04-28T13:57:45.743Z,99548.44
2023-04-28T14:00:15.452Z,99550.16
2023-04-28T14:02:44.838Z,99542.22
2023-04-28T14:05:15.045Z,99542.28
2023-04-28T14:07:43.939Z,99547.78
2023-04-28T14:10:12.663Z,99540.91
2023-04-28T14:12:41.089Z,99542.81
2023-04-28T14:15:10.068Z,99542.84
2023-04-28T14:17:39.045Z,99537.38
2023-04-28T14:20:11.514Z,99529.19
2023-04-28T14:22:41.982Z,99524.38
2023-04-28T14:25:11.841Z,99517.03
2023-04-28T14:27:40.686Z,99524.16
2023-04-28T14:30:12.843Z,99535.63
2023-04-28T14:32:41.532Z,99536.66
2023-04-28T14:35:13.558Z,99534.16
2023-04-28T14:37:44.354Z,99536.97
2023-04-28T14:40:13.247Z,99539.63
2023-04-28T14:42:41.796Z,99539.47
2023-04-28T14:45:11.835Z,99533.19
2023-04-28T14:47:42.195Z,99536.66
2023-04-28T14:50:13.189Z,99522.50
2023-04-28T14:52:44.111Z,99528.81
2023-04-28T14:55:13.675Z,99536.97
2023-04-28T14:57:42.690Z,99531.84
2023-04-28T15:00:12.309Z,99540.81
2023-04-28T15:02:41.041Z,99542.72
2023-04-28T15:05:11.396Z,99557.91
2023-04-28T15:07:40.096Z,99544.78
2023-04-28T15:10:10.479Z,99551.16
2023-04-28T15:12:38.912Z,99556.59
2023-04-28T15:15:08.488Z,99561.19
2023-04-28T15:17:36.927Z,99567.53
2023-04-28T15:20:06.447Z,99564.16
2023-04-28T15:22:36.513Z,99575.72
2023-04-28T15:25:05.932Z,99572.31
2023-04-28T15:27:36.523Z,99588.31
2023-04-28T15:30:06.635Z,99586.66
2023-04-28T15:32:35.353Z,99599.16
2023-04-28T15:35:04.112Z,99610.72
2023-04-28T15:37:43.860Z,99615.31
2023-04-28T15:40:14.661Z,99626.09
2023-04-28T15:42:49.110Z,99628.00
2023-04-28T15:45:18.889Z,99630.72
2023-04-28T15:47:49.457Z,99636.97
2023-04-28T15:50:19.749Z,99637.97
2023-04-28T15:52:50.230Z,99638.03
2023-04-28T15:55:20.279Z,99649.59
2023-04-28T15:57:51.131Z,99658.50
2023-04-28T16:00:19.770Z,99651.50
2023-04-28T16:02:48.651Z,99639.22
2023-04-28T16:05:17.694Z,99648.13
2023-04-28T16:07:46.354Z,99649.06
2023-04-28T16:10:16.713Z,99651.72
2023-04-28T16:12:45.749Z,99660.56
2023-04-28T16:15:15.870Z,99660.56
2023-04-28T16:17:44.749Z,99666.72
2023-04-28T16:20:13.561Z,99671.19
2023-04-28T16:22:43.284Z,99664.13
2023-04-28T16:25:12.471Z,99676.47
2023-04-28T16:27:41.741Z,99665.91
2023-04-28T16:30:11.032Z,99672.06
2023-04-28T16:32:41.126Z,99678.25
2023-04-28T16:35:15.139Z,99669.44
2023-04-28T16:37:44.473Z,99681.78
2023-04-28T16:40:13.928Z,99680.94
2023-04-28T16:42:43.693Z,99675.69
2023-04-28T16:45:13.057Z,99680.06
2023-04-28T16:47:44.031Z,99679.19
2023-04-28T16:50:14.804Z,99683.59
2023-04-28T16:52:43.825Z,99671.28
2023-04-28T16:55:12.603Z,99678.34
2023-04-28T16:57:41.425Z,99679.19
2023-04-28T17:00:12.095Z,99687.16
2023-04-28T17:02:42.192Z,99687.19
2023-04-28T17:05:11.397Z,99688.06
2023-04-28T17:07:40.045Z,99681.06
2023-04-28T17:10:09.810Z,99684.59
2023-04-28T17:12:39.495Z,99691.63
2023-04-28T17:15:09.508Z,99701.31
2023-04-28T17:17:38.206Z,99701.34
2023-04-28T17:20:10.467Z,99706.63
2023-04-28T17:22:39.424Z,99704.00
2023-04-28T17:25:09.879Z,99704.00
2023-04-28T17:27:38.534Z,99696.09
2023-04-28T17:30:10.919Z,99696.09
2023-04-28T17:32:39.610Z,99703.16
2023-04-28T17:35:10.576Z,99700.53
2023-04-28T17:37:39.206Z,99702.25
2023-04-28T17:40:09.166Z,99711.97
2023-04-28T17:42:37.757Z,99714.59
2023-04-28T17:45:07.482Z,99719.88
2023-04-28T17:47:36.365Z,99723.41
2023-04-28T17:50:06.559Z,99723.41
2023-04-28T17:52:37.799Z,99726.06
2023-04-28T17:55:07.594Z,99720.75
2023-04-28T17:57:36.989Z,99735.69
2023-04-28T18:00:12.154Z,99736.59
2023-04-28T18:02:41.509Z,99736.56
2023-04-28T18:05:11.278Z,99735.69
2023-04-28T18:07:41.815Z,99734.78
2023-04-28T18:10:11.545Z,99740.97
2023-04-28T18:12:40.266Z,99741.84
2023-04-28T18:15:10.949Z,99750.63
2023-04-28T18:17:39.871Z,99740.09
2023-04-28T18:20:09.913Z,99741.84
2023-04-28T18:22:39.349Z,99749.72
2023-04-28T18:25:10.979Z,99744.47
2023-04-28T18:27:40.161Z,99758.50
2023-04-28T18:30:10.313Z,99754.13
2023-04-28T18:32:40.738Z,99762.91
2023-04-28T18:35:10.487Z,99764.66
2023-04-28T18:37:39.778Z,99754.09
2023-04-28T18:40:13.308Z,99754.09
2023-04-28T18:42:42.598Z,99758.47
2023-04-28T18:45:13.045Z,99755.81
2023-04-28T18:47:42.091Z,99764.59
2023-04-28T18:50:11.760Z,99763.72
2023-04-28T18:52:41.092Z,99756.69
2023-04-28T18:55:11.929Z,99768.09
2023-04-28T18:57:42.587Z,99766.34
2023-04-28T19:00:12.079Z,99768.97
2023-04-28T19:02:41.313Z,99770.72
2023-04-28T19:05:10.646Z,99769.84
2023-04-28T19:07:40.469Z,99773.34
2023-04-28T19:10:12.481Z,99774.19
2023-04-28T19:12:42.671Z,99771.56
2023-04-28T19:15:11.957Z,99773.31
2023-04-28T19:17:40.994Z,99772.47
2023-04-28T19:20:10.744Z,99774.22
2023-04-28T19:22:44.023Z,99772.44
2023-04-28T19:25:16.066Z,99769.78
2023-04-28T19:27:46.830Z,99783.84
2023-04-28T19:30:16.841Z,99778.56
2023-04-28T19:32:46.814Z,99779.47
2023-04-28T19:35:16.645Z,99793.53
2023-04-28T19:37:46.236Z,99790.00
2023-04-28T19:40:20.189Z,99793.50
2023-04-28T19:42:51.904Z,99790.88
2023-04-28T19:45:25.524Z,99790.88
2023-04-28T19:47:55.623Z,99790.84
2023-04-28T19:50:24.496Z,99791.72
2023-04-28T19:52:53.345Z,99790.84
2023-04-28T19:55:24.144Z,99789.94
2023-04-28T19:57:55.919Z,99790.84
2023-04-28T20:00:25.640Z,99797.84
2023-04-28T20:02:54.709Z,99803.13
2023-04-28T20:05:23.621Z,99797.84
2023-04-28T20:07:56.166Z,99792.56
2023-04-28T20:10:26.645Z,99802.22
2023-04-28T20:12:55.404Z,99792.53
2023-04-28T20:15:24.306Z,99799.59
2023-04-28T20:17:53.416Z,99801.31
2023-04-28T20:20:22.347Z,99808.34
2023-04-28T20:22:51.777Z,99802.22
2023-04-28T20:25:21.122Z,99798.69
2023-04-28T20:27:51.202Z,99798.66
2023-04-28T20:30:20.115Z,99801.28
2023-04-28T20:32:49.400Z,99808.28
2023-04-28T20:35:18.113Z,99794.22
2023-04-28T20:37:46.764Z,99801.22
2023-04-28T20:40:15.504Z,99795.94
2023-04-28T20:42:44.028Z,99810.84
2023-04-28T20:45:14.011Z,99800.31
2023-04-28T20:47:42.593Z,99802.94
2023-04-28T20:50:12.415Z,99801.16
2023-04-28T20:52:40.982Z,99802.09
2023-04-28T20:55:10.588Z,99801.16
2023-04-28T20:57:39.167Z,99798.56
2023-04-28T21:00:09.145Z,99809.06
2023-04-28T21:02:39.268Z,99804.69
2023-04-28T21:05:08.660Z,99799.41
2023-04-28T21:07:37.192Z,99805.50
2023-04-28T21:10:06.770Z,99804.59
2023-04-28T21:12:36.105Z,99816.84
2023-04-28T21:15:05.009Z,99816.78
2023-04-28T21:17:33.552Z,99815.00
2023-04-28T21:20:03.503Z,99814.97
2023-04-28T21:22:33.558Z,99816.66
2023-04-28T21:25:02.200Z,99828.91
2023-04-28T21:27:36.946Z,99820.09
2023-04-28T21:30:06.415Z,99822.69
2023-04-28T21:32:35.012Z,99821.78
2023-04-28T21:35:05.282Z,99826.97
2023-04-28T21:37:33.914Z,99825.22
2023-04-28T21:40:02.707Z,99818.13
2023-04-28T21:42:31.989Z,99822.47
2023-04-28T21:45:00.502Z,99817.19
2023-04-28T21:47:29.335Z,99829.47
2023-04-28T21:49:58.035Z,99832.94
2023-04-28T21:52:28.048Z,99828.53
2023-04-28T21:54:56.748Z,99826.75
2023-04-28T21:57:25.285Z,99823.19
2023-04-28T21:59:53.864Z,99826.66
2023-04-28T22:02:22.922Z,99821.38
2023-04-28T22:04:51.739Z,99834.50
2023-04-28T22:07:20.305Z,99824.81
2023-04-28T22:09:50.465Z,99828.34
2023-04-28T22:12:19.065Z,99824.81
2023-04-28T22:14:47.612Z,99824.81
2023-04-28T22:17:16.402Z,99829.19
2023-04-28T22:19:45.322Z,99835.28
2023-04-28T22:22:13.785Z,99833.50
2023-04-28T22:24:42.339Z,99847.53
2023-04-28T22:27:12.170Z,99845.75
2023-04-28T22:29:40.639Z,99847.47
2023-04-28T22:32:10.212Z,99840.47
2023-04-28T22:34:38.794Z,99849.19
2023-04-28T22:37:07.366Z,99850.91
2023-04-28T22:39:36.505Z,99857.88
2023-04-28T22:42:05.069Z,99856.13
2023-04-28T22:44:34.862Z,99851.72
2023-04-28T22:47:03.525Z,99850.81
2023-04-28T22:49:32.270Z,99850.78
2023-04-28T22:52:01.058Z,99859.56
2023-04-28T22:54:29.689Z,99861.25
2023-04-28T22:56:59.230Z,99853.34
2023-04-28T22:59:27.891Z,99861.19
2023-04-28T23:01:57.798Z,99854.13
2023-04-28T23:04:26.979Z,99862.00
2023-04-28T23:06:55.588Z,99859.34
2023-04-28T23:09:24.199Z,99861.09
2023-04-28T23:11:52.726Z,99862.78
2023-04-28T23:14:21.296Z,99867.16
2023-04-28T23:16:49.989Z,99875.00
2023-04-28T23:19:20.723Z,99882.88
2023-04-28T23:21:49.567Z,99880.13
2023-04-28T23:24:18.161Z,99876.63
2023-04-28T23:26:47.012Z,99876.56
2023-04-28T23:29:15.597Z,99885.28
2023-04-28T23:31:52.121Z,99880.00
2023-04-28T23:34:22.591Z,99881.63
2023-04-28T23:36:51.704Z,99885.09
2023-04-28T23:39:20.197Z,99885.91
2023-04-28T23:41:48.768Z,99880.63
2023-04-28T23:44:17.344Z,99884.06
2023-04-28T23:46:45.919Z,99888.44
2023-04-28T23:49:16.082Z,99885.78
2023-04-28T23:51:46.085Z,99891.88
2023-04-28T23:54:14.633Z,99898.84
2023-04-28T23:56:43.195Z,99883.03
2023-04-28T23:59:11.712Z,99896.16
